Decoded Metar for PAFR (FORT RICHARDSON in USA) (IATA:N/A) | Meteo·Mobile Aviation Weather
aviador You're here:

PAFR Decoded Metar

FORT RICHARDSON in USA
Report Time2018-12-15 18:58:00
UTC Time2018-12-15 19:19:42
Flight Rules vfr VFR
WindCalm
Visibility9999 m
Phenomena:N/A
Clouds:Scattered 006 Hf
Overcast 150 Hf
Expected CloudBase > 400 ft AGL from Temp-Dew spread
Ceiling15,000 ft
Temp-11°C (ISA -25)
Dew Point-12°C (92% RH)
AAT-14.2°C
QNH994 hPa
Density Alt-2,090 ft
Elevation377 ft
Report Wrong Elevation
Raw Report
PAFR 151858Z AUTO 00000KT 10SM SCT006 OVC150 M11/M12 A2935=

Extra information for PAFR:More info

Metar Taf Metar & Taf Last 4 Metars F.Rules Stats Wind Profile Meteogram Temp Stats Airport Information Weather charts Add Link Nearby VenuesMetar ALERT Operation Metar Decoded Social comments

AIRNAV info for PAFR